sensor_id;sensor_type;location;lat;lon;timestamp;pressure;altitude;pressure_sealevel;temperature;humidity
58367;BME280;57745;42.524;12.052;2023-06-10T00:01:12;96275.75;;;23.78;63.19
58367;BME280;57745;42.524;12.052;2023-06-10T00:03:37;96283.34;;;23.72;63.20
58367;BME280;57745;42.524;12.052;2023-06-10T00:06:03;96280.47;;;23.83;62.65
58367;BME280;57745;42.524;12.052;2023-06-10T00:08:28;96279.22;;;23.84;62.26
58367;BME280;57745;42.524;12.052;2023-06-10T00:10:56;96287.06;;;23.80;62.79
58367;BME280;57745;42.524;12.052;2023-06-10T00:13:22;96284.84;;;23.73;62.57
58367;BME280;57745;42.524;12.052;2023-06-10T00:15:47;96287.28;;;23.82;62.47
58367;BME280;57745;42.524;12.052;2023-06-10T00:18:13;96284.25;;;23.86;62.32
58367;BME280;57745;42.524;12.052;2023-06-10T00:20:38;96272.59;;;23.63;63.16
58367;BME280;57745;42.524;12.052;2023-06-10T00:23:04;96269.50;;;23.72;62.85
58367;BME280;57745;42.524;12.052;2023-06-10T00:25:32;96268.28;;;23.68;62.48
58367;BME280;57745;42.524;12.052;2023-06-10T00:27:58;96274.63;;;23.62;62.50
58367;BME280;57745;42.524;12.052;2023-06-10T00:30:23;96277.09;;;23.66;62.65
58367;BME280;57745;42.524;12.052;2023-06-10T00:32:49;96269.50;;;23.72;62.25
58367;BME280;57745;42.524;12.052;2023-06-10T00:35:14;96268.91;;;23.55;63.00
58367;BME280;57745;42.524;12.052;2023-06-10T00:37:40;96266.78;;;23.67;62.71
58367;BME280;57745;42.524;12.052;2023-06-10T00:40:06;96261.72;;;23.71;62.47
58367;BME280;57745;42.524;12.052;2023-06-10T00:42:33;96269.50;;;23.72;62.63
58367;BME280;57745;42.524;12.052;2023-06-10T00:44:58;96265.06;;;23.88;61.92
58367;BME280;57745;42.524;12.052;2023-06-10T00:47:25;96263.56;;;23.87;62.07
58367;BME280;57745;42.524;12.052;2023-06-10T00:49:51;96267.16;;;23.82;62.18
58367;BME280;57745;42.524;12.052;2023-06-10T00:52:18;96267.91;;;23.82;61.85
58367;BME280;57745;42.524;12.052;2023-06-10T00:54:45;96259.59;;;23.82;61.82
58367;BME280;57745;42.524;12.052;2023-06-10T00:57:12;96261.53;;;23.63;62.17
58367;BME280;57745;42.524;12.052;2023-06-10T00:59:40;96265.69;;;23.75;61.06
58367;BME280;57745;42.524;12.052;2023-06-10T01:02:06;96266.75;;;23.72;61.77
58367;BME280;57745;42.524;12.052;2023-06-10T01:04:32;96260.47;;;23.72;62.07
58367;BME280;57745;42.524;12.052;2023-06-10T01:10:16;96257.03;;;23.60;62.48
58367;BME280;57745;42.524;12.052;2023-06-10T01:12:46;96254.97;;;23.66;62.40
58367;BME280;57745;42.524;12.052;2023-06-10T01:15:16;96258.59;;;23.80;62.12
58367;BME280;57745;42.524;12.052;2023-06-10T01:18:03;96244.81;;;23.74;62.07
58367;BME280;57745;42.524;12.052;2023-06-10T01:20:31;96255.44;;;23.70;62.00
58367;BME280;57745;42.524;12.052;2023-06-10T01:23:01;96254.69;;;23.70;62.06
58367;BME280;57745;42.524;12.052;2023-06-10T01:25:28;96245.97;;;23.60;62.55
58367;BME280;57745;42.524;12.052;2023-06-10T01:28:13;96248.03;;;23.54;62.27
58367;BME280;57745;42.524;12.052;2023-06-10T01:30:50;96249.25;;;23.58;62.10
58367;BME280;57745;42.524;12.052;2023-06-10T01:33:25;96246.88;;;23.68;61.67
58367;BME280;57745;42.524;12.052;2023-06-10T01:35:52;96261.97;;;23.73;61.73
58367;BME280;57745;42.524;12.052;2023-06-10T01:38:19;96249.06;;;23.51;61.99
58367;BME280;57745;42.524;12.052;2023-06-10T01:40:45;96247.69;;;23.63;61.86
58367;BME280;57745;42.524;12.052;2023-06-10T01:43:11;96246.88;;;23.38;62.62
58367;BME280;57745;42.524;12.052;2023-06-10T01:45:37;96251.72;;;23.62;61.73
58367;BME280;57745;42.524;12.052;2023-06-10T01:48:02;96244.25;;;23.51;62.27
58367;BME280;57745;42.524;12.052;2023-06-10T01:50:28;96241.03;;;23.47;62.48
58367;BME280;57745;42.524;12.052;2023-06-10T01:52:53;96240.00;;;23.50;62.30
58367;BME280;57745;42.524;12.052;2023-06-10T01:55:19;96239.47;;;23.52;62.06
58367;BME280;57745;42.524;12.052;2023-06-10T01:57:44;96244.53;;;23.48;62.25
58367;BME280;57745;42.524;12.052;2023-06-10T02:00:10;96242.25;;;23.52;61.90
58367;BME280;57745;42.524;12.052;2023-06-10T02:02:36;96238.81;;;23.70;61.28
58367;BME280;57745;42.524;12.052;2023-06-10T02:05:01;96238.34;;;23.66;61.09
58367;BME280;57745;42.524;12.052;2023-06-10T02:07:27;96238.06;;;23.70;61.06
58367;BME280;57745;42.524;12.052;2023-06-10T02:09:52;96232.25;;;23.73;60.67
58367;BME280;57745;42.524;12.052;2023-06-10T02:12:17;96234.28;;;23.37;61.07
58367;BME280;57745;42.524;12.052;2023-06-10T02:14:43;96219.09;;;23.49;60.95
58367;BME280;57745;42.524;12.052;2023-06-10T02:17:08;96225.22;;;23.72;60.01
58367;BME280;57745;42.524;12.052;2023-06-10T02:19:38;96223.25;;;23.67;60.12
58367;BME280;57745;42.524;12.052;2023-06-10T02:22:08;96221.19;;;23.73;59.13
58367;BME280;57745;42.524;12.052;2023-06-10T02:24:33;96220.00;;;23.87;58.73
58367;BME280;57745;42.524;12.052;2023-06-10T02:27:00;96223.41;;;23.75;58.94
58367;BME280;57745;42.524;12.052;2023-06-10T02:29:26;96221.19;;;23.73;59.01
58367;BME280;57745;42.524;12.052;2023-06-10T02:31:52;96221.47;;;23.70;59.44
58367;BME280;57745;42.524;12.052;2023-06-10T02:34:18;96225.66;;;23.76;59.15
58367;BME280;57745;42.524;12.052;2023-06-10T02:36:43;96221.75;;;23.66;59.35
58367;BME280;57745;42.524;12.052;2023-06-10T02:39:09;96215.97;;;23.64;59.29
58367;BME280;57745;42.524;12.052;2023-06-10T02:41:34;96223.13;;;23.78;59.11
58367;BME280;57745;42.524;12.052;2023-06-10T02:44:00;96213.50;;;23.60;59.47
58367;BME280;57745;42.524;12.052;2023-06-10T02:46:26;96209.75;;;23.58;60.04
58367;BME280;57745;42.524;12.052;2023-06-10T02:48:54;96211.88;;;23.71;59.64
58367;BME280;57745;42.524;12.052;2023-06-10T02:51:19;96199.34;;;23.64;59.92
58367;BME280;57745;42.524;12.052;2023-06-10T02:53:46;96197.41;;;23.59;60.16
58367;BME280;57745;42.524;12.052;2023-06-10T02:56:11;96193.88;;;23.58;59.99
58367;BME280;57745;42.524;12.052;2023-06-10T02:58:38;96187.94;;;23.73;59.92
58367;BME280;57745;42.524;12.052;2023-06-10T03:01:03;96188.63;;;23.55;60.56
58367;BME280;57745;42.524;12.052;2023-06-10T03:03:28;96194.63;;;23.59;60.39
58367;BME280;57745;42.524;12.052;2023-06-10T03:05:55;96199.22;;;23.75;59.78
58367;BME280;57745;42.524;12.052;2023-06-10T03:08:21;96190.38;;;23.58;60.25
58367;BME280;57745;42.524;12.052;2023-06-10T03:10:47;96191.63;;;23.57;60.25
58367;BME280;57745;42.524;12.052;2023-06-10T03:13:13;96194.28;;;23.68;59.90
58367;BME280;57745;42.524;12.052;2023-06-10T03:15:39;96202.34;;;23.66;60.16
58367;BME280;57745;42.524;12.052;2023-06-10T03:18:06;96192.91;;;23.56;60.33
58367;BME280;57745;42.524;12.052;2023-06-10T03:20:32;96199.00;;;23.49;60.65
58367;BME280;57745;42.524;12.052;2023-06-10T03:23:04;96201.38;;;23.34;61.16
58367;BME280;57745;42.524;12.052;2023-06-10T03:25:32;96198.28;;;23.43;61.31
58367;BME280;57745;42.524;12.052;2023-06-10T03:27:57;96188.75;;;23.38;61.37
58367;BME280;57745;42.524;12.052;2023-06-10T03:30:23;96198.66;;;23.58;60.46
58367;BME280;57745;42.524;12.052;2023-06-10T03:32:48;96199.59;;;23.66;60.41
58367;BME280;57745;42.524;12.052;2023-06-10T03:35:14;96198.56;;;23.69;60.36
58367;BME280;57745;42.524;12.052;2023-06-10T03:37:40;96200.28;;;23.72;60.35
58367;BME280;57745;42.524;12.052;2023-06-10T03:40:07;96199.44;;;23.58;60.69
58367;BME280;57745;42.524;12.052;2023-06-10T03:42:34;96197.34;;;23.35;61.28
58367;BME280;57745;42.524;12.052;2023-06-10T03:44:59;96205.84;;;23.42;60.86
58367;BME280;57745;42.524;12.052;2023-06-10T03:47:25;96188.59;;;23.31;61.33
58367;BME280;57745;42.524;12.052;2023-06-10T03:49:50;96206.63;;;23.37;60.76
58367;BME280;57745;42.524;12.052;2023-06-10T03:52:16;96203.44;;;23.27;61.27
58367;BME280;57745;42.524;12.052;2023-06-10T03:54:41;96201.84;;;23.38;60.99
58367;BME280;57745;42.524;12.052;2023-06-10T03:57:06;96202.91;;;23.35;61.32
58367;BME280;57745;42.524;12.052;2023-06-10T03:59:32;96205.97;;;23.25;61.71
58367;BME280;57745;42.524;12.052;2023-06-10T04:01:57;96199.69;;;23.25;61.67
58367;BME280;57745;42.524;12.052;2023-06-10T04:04:23;96206.53;;;23.18;61.86
58367;BME280;57745;42.524;12.052;2023-06-10T04:06:49;96197.41;;;23.29;61.70
58367;BME280;57745;42.524;12.052;2023-06-10T04:09:15;96200.22;;;23.53;60.94
58367;BME280;57745;42.524;12.052;2023-06-10T04:11:41;96201.56;;;23.41;61.46
58367;BME280;57745;42.524;12.052;2023-06-10T04:14:07;96196.41;;;23.26;62.04
58367;BME280;57745;42.524;12.052;2023-06-10T04:16:33;96193.22;;;23.17;62.39
58367;BME280;57745;42.524;12.052;2023-06-10T04:18:59;96194.16;;;23.25;62.17
58367;BME280;57745;42.524;12.052;2023-06-10T04:21:26;96191.78;;;23.10;62.56
58367;BME280;57745;42.524;12.052;2023-06-10T04:23:51;96197.53;;;23.12;62.52
58367;BME280;57745;42.524;12.052;2023-06-10T04:26:17;96199.00;;;23.19;62.34
58367;BME280;57745;42.524;12.052;2023-06-10T04:28:43;96195.94;;;23.22;62.12
58367;BME280;57745;42.524;12.052;2023-06-10T04:31:08;96195.72;;;23.20;61.98
58367;BME280;57745;42.524;12.052;2023-06-10T04:33:35;96187.59;;;23.28;62.21
58367;BME280;57745;42.524;12.052;2023-06-10T04:36:01;96192.00;;;23.42;61.57
58367;BME280;57745;42.524;12.052;2023-06-10T04:38:26;96198.78;;;23.41;61.77
58367;BME280;57745;42.524;12.052;2023-06-10T04:40:52;96192.63;;;23.29;62.08
58367;BME280;57745;42.524;12.052;2023-06-10T04:43:17;96200.13;;;23.35;61.99
58367;BME280;57745;42.524;12.052;2023-06-10T04:45:43;96187.41;;;23.20;62.89
58367;BME280;57745;42.524;12.052;2023-06-10T04:48:10;96187.88;;;23.24;62.92
58367;BME280;57745;42.524;12.052;2023-06-10T04:50:37;96179.94;;;23.40;62.30
58367;BME280;57745;42.524;12.052;2023-06-10T04:53:02;96177.28;;;23.58;61.87
58367;BME280;57745;42.524;12.052;2023-06-10T04:55:28;96175.16;;;23.70;61.39
58367;BME280;57745;42.524;12.052;2023-06-10T04:57:54;96172.41;;;23.64;61.61
58367;BME280;57745;42.524;12.052;2023-06-10T05:00:20;96172.94;;;23.63;61.50
58367;BME280;57745;42.524;12.052;2023-06-10T05:02:45;96175.56;;;23.50;61.96
58367;BME280;57745;42.524;12.052;2023-06-10T05:05:18;96174.41;;;23.40;62.43
58367;BME280;57745;42.524;12.052;2023-06-10T05:07:43;96177.47;;;23.36;62.66
58367;BME280;57745;42.524;12.052;2023-06-10T05:10:09;96176.81;;;23.24;63.40
58367;BME280;57745;42.524;12.052;2023-06-10T05:12:35;96172.78;;;23.50;62.84
58367;BME280;57745;42.524;12.052;2023-06-10T05:15:00;96172.25;;;23.57;62.52
58367;BME280;57745;42.524;12.052;2023-06-10T05:17:26;96171.00;;;23.58;62.50
58367;BME280;57745;42.524;12.052;2023-06-10T05:19:52;96166.50;;;23.55;62.28
58367;BME280;57745;42.524;12.052;2023-06-10T05:22:18;96175.56;;;23.50;62.77
58367;BME280;57745;42.524;12.052;2023-06-10T05:24:44;96166.63;;;23.38;62.71
58367;BME280;57745;42.524;12.052;2023-06-10T05:27:10;96166.19;;;23.58;62.24
58367;BME280;57745;42.524;12.052;2023-06-10T05:29:35;96172.19;;;23.62;61.66
58367;BME280;57745;42.524;12.052;2023-06-10T05:32:01;96175.34;;;23.48;63.12
58367;BME280;57745;42.524;12.052;2023-06-10T05:34:31;96169.63;;;23.40;63.35
58367;BME280;57745;42.524;12.052;2023-06-10T05:36:56;96168.06;;;23.45;62.62
58367;BME280;57745;42.524;12.052;2023-06-10T05:39:22;96170.47;;;23.29;63.16
58367;BME280;57745;42.524;12.052;2023-06-10T05:41:47;96168.41;;;23.36;63.59
58367;BME280;57745;42.524;12.052;2023-06-10T05:44:13;96177.63;;;23.44;63.27
58367;BME280;57745;42.524;12.052;2023-06-10T05:46:38;96176.63;;;23.47;62.87
58367;BME280;57745;42.524;12.052;2023-06-10T05:49:03;96171.34;;;23.43;63.17
58367;BME280;57745;42.524;12.052;2023-06-10T05:51:29;96171.22;;;23.30;63.83
58367;BME280;57745;42.524;12.052;2023-06-10T05:53:54;96173.56;;;23.50;63.11
58367;BME280;57745;42.524;12.052;2023-06-10T05:56:20;96171.34;;;23.73;62.60
58367;BME280;57745;42.524;12.052;2023-06-10T05:58:48;96170.28;;;23.52;63.12
58367;BME280;57745;42.524;12.052;2023-06-10T06:01:13;96176.84;;;23.49;63.66
58367;BME280;57745;42.524;12.052;2023-06-10T06:03:38;96185.16;;;23.49;63.62
58367;BME280;57745;42.524;12.052;2023-06-10T06:06:04;96190.41;;;23.52;63.13
58367;BME280;57745;42.524;12.052;2023-06-10T06:08:30;96190.25;;;23.69;62.77
58367;BME280;57745;42.524;12.052;2023-06-10T06:10:55;96196.19;;;23.79;62.38
58367;BME280;57745;42.524;12.052;2023-06-10T06:13:21;96193.66;;;23.56;63.38
58367;BME280;57745;42.524;12.052;2023-06-10T06:15:46;96199.72;;;23.49;63.42
58367;BME280;57745;42.524;12.052;2023-06-10T06:18:12;96197.72;;;23.74;62.38
58367;BME280;57745;42.524;12.052;2023-06-10T06:20:37;96202.13;;;23.64;62.95
58367;BME280;57745;42.524;12.052;2023-06-10T06:23:03;96203.97;;;23.56;62.90
58367;BME280;57745;42.524;12.052;2023-06-10T06:25:29;96198.66;;;23.58;62.86
58367;BME280;57745;42.524;12.052;2023-06-10T06:27:54;96200.19;;;23.59;62.33
58367;BME280;57745;42.524;12.052;2023-06-10T06:30:20;96192.53;;;23.65;62.15
58367;BME280;57745;42.524;12.052;2023-06-10T06:32:45;96186.50;;;23.67;62.23
58367;BME280;57745;42.524;12.052;2023-06-10T06:35:10;96188.63;;;23.55;62.82
58367;BME280;57745;42.524;12.052;2023-06-10T06:37:36;96186.22;;;23.70;62.36
58367;BME280;57745;42.524;12.052;2023-06-10T06:40:01;96175.50;;;23.61;61.66
58367;BME280;57745;42.524;12.052;2023-06-10T06:42:27;96170.50;;;23.78;61.60
58367;BME280;57745;42.524;12.052;2023-06-10T06:44:53;96177.09;;;23.51;62.75
58367;BME280;57745;42.524;12.052;2023-06-10T06:47:18;96186.84;;;23.82;61.35
58367;BME280;57745;42.524;12.052;2023-06-10T06:49:47;96188.78;;;23.62;62.21
58367;BME280;57745;42.524;12.052;2023-06-10T06:52:14;96187.06;;;23.84;61.66
58367;BME280;57745;42.524;12.052;2023-06-10T06:54:40;96192.91;;;23.80;61.81
58367;BME280;57745;42.524;12.052;2023-06-10T06:57:05;96191.41;;;23.79;61.58
58367;BME280;57745;42.524;12.052;2023-06-10T06:59:32;96194.69;;;23.78;61.87
58367;BME280;57745;42.524;12.052;2023-06-10T07:01:58;96191.28;;;23.90;61.53
58367;BME280;57745;42.524;12.052;2023-06-10T07:04:23;96186.25;;;23.89;61.40
58367;BME280;57745;42.524;12.052;2023-06-10T07:06:49;96184.13;;;23.76;61.72
58367;BME280;57745;42.524;12.052;2023-06-10T07:09:14;96177.19;;;23.88;61.32
58367;BME280;57745;42.524;12.052;2023-06-10T07:11:40;96188.72;;;23.92;61.10
58367;BME280;57745;42.524;12.052;2023-06-10T07:14:06;96185.25;;;23.86;60.95
58367;BME280;57745;42.524;12.052;2023-06-10T07:16:32;96189.25;;;23.91;60.64
58367;BME280;57745;42.524;12.052;2023-06-10T07:18:57;96197.00;;;23.74;60.91
58367;BME280;57745;42.524;12.052;2023-06-10T07:21:23;96199.03;;;23.73;61.03
58367;BME280;57745;42.524;12.052;2023-06-10T07:23:48;96204.56;;;23.73;61.05
58367;BME280;57745;42.524;12.052;2023-06-10T07:26:14;96209.00;;;23.82;61.05
58367;BME280;57745;42.524;12.052;2023-06-10T07:28:40;96212.50;;;23.82;61.34
58367;BME280;57745;42.524;12.052;2023-06-10T07:31:07;96204.78;;;23.75;61.36
58367;BME280;57745;42.524;12.052;2023-06-10T07:33:32;96206.75;;;23.80;61.63
58367;BME280;57745;42.524;12.052;2023-06-10T07:35:58;96204.00;;;23.99;60.91
58367;BME280;57745;42.524;12.052;2023-06-10T07:38:27;96194.75;;;23.96;60.73
58367;BME280;57745;42.524;12.052;2023-06-10T07:40:52;96198.94;;;24.03;60.06
58367;BME280;57745;42.524;12.052;2023-06-10T07:43:18;96199.63;;;24.09;59.84
58367;BME280;57745;42.524;12.052;2023-06-10T07:45:44;96202.09;;;24.13;59.63
58367;BME280;57745;42.524;12.052;2023-06-10T07:48:10;96195.94;;;24.01;60.13
58367;BME280;57745;42.524;12.052;2023-06-10T07:50:36;96198.66;;;24.07;60.13
58367;BME280;57745;42.524;12.052;2023-06-10T07:53:02;96216.44;;;23.92;60.75
58367;BME280;57745;42.524;12.052;2023-06-10T07:55:27;96216.06;;;24.02;60.43
58367;BME280;57745;42.524;12.052;2023-06-10T07:57:53;96213.41;;;24.15;59.93
58367;BME280;57745;42.524;12.052;2023-06-10T08:00:19;96219.16;;;23.98;60.27
58367;BME280;57745;42.524;12.052;2023-06-10T08:02:45;96210.19;;;24.11;59.76
58367;BME280;57745;42.524;12.052;2023-06-10T08:05:10;96208.38;;;24.13;59.76
58367;BME280;57745;42.524;12.052;2023-06-10T08:07:36;96216.78;;;24.08;60.14
58367;BME280;57745;42.524;12.052;2023-06-10T08:10:02;96211.50;;;24.28;59.29
58367;BME280;57745;42.524;12.052;2023-06-10T08:12:29;96216.63;;;24.19;59.37
58367;BME280;57745;42.524;12.052;2023-06-10T08:14:55;96220.53;;;24.10;59.56
58367;BME280;57745;42.524;12.052;2023-06-10T08:17:21;96212.22;;;24.10;59.50
58367;BME280;57745;42.524;12.052;2023-06-10T08:19:47;96206.13;;;24.12;59.56
58367;BME280;57745;42.524;12.052;2023-06-10T08:22:12;96214.84;;;24.21;59.14
58367;BME280;57745;42.524;12.052;2023-06-10T08:24:38;96210.63;;;24.15;59.47
58367;BME280;57745;42.524;12.052;2023-06-10T08:27:03;96214.88;;;24.40;58.83
58367;BME280;57745;42.524;12.052;2023-06-10T08:29:29;96223.22;;;24.16;59.19
58367;BME280;57745;42.524;12.052;2023-06-10T08:31:56;96222.97;;;24.38;58.49
58367;BME280;57745;42.524;12.052;2023-06-10T08:34:21;96224.22;;;24.37;58.69
58367;BME280;57745;42.524;12.052;2023-06-10T08:36:47;96217.38;;;24.19;59.18
58367;BME280;57745;42.524;12.052;2023-06-10T08:39:12;96213.47;;;24.09;59.17
58367;BME280;57745;42.524;12.052;2023-06-10T08:41:43;96217.88;;;24.42;58.07
58367;BME280;57745;42.524;12.052;2023-06-10T08:44:14;96216.63;;;24.19;58.94
58367;BME280;57745;42.524;12.052;2023-06-10T08:46:45;96209.47;;;24.29;58.62
58367;BME280;57745;42.524;12.052;2023-06-10T08:49:17;96214.09;;;24.21;58.90
58367;BME280;57745;42.524;12.052;2023-06-10T08:51:43;96214.09;;;24.21;58.90
58367;BME280;57745;42.524;12.052;2023-06-10T08:54:17;96219.53;;;24.32;58.49
58367;BME280;57745;42.524;12.052;2023-06-10T08:56:47;96214.91;;;24.16;59.33
58367;BME280;57745;42.524;12.052;2023-06-10T08:59:14;96222.75;;;24.12;58.96
58367;BME280;57745;42.524;12.052;2023-06-10T09:01:42;96214.84;;;24.21;58.58
58367;BME280;57745;42.524;12.052;2023-06-10T09:04:08;96217.63;;;24.21;58.50
58367;BME280;57745;42.524;12.052;2023-06-10T09:06:34;96211.72;;;24.49;57.77
58367;BME280;57745;42.524;12.052;2023-06-10T09:09:02;96220.72;;;24.37;57.86
58367;BME280;57745;42.524;12.052;2023-06-10T09:11:28;96219.38;;;24.43;57.82
58367;BME280;57745;42.524;12.052;2023-06-10T09:13:53;96211.78;;;24.25;58.45
58367;BME280;57745;42.524;12.052;2023-06-10T09:16:19;96222.19;;;24.19;58.27
58367;BME280;57745;42.524;12.052;2023-06-10T09:18:45;96215.41;;;24.14;58.70
58367;BME280;57745;42.524;12.052;2023-06-10T09:21:10;96220.56;;;24.29;58.08
58367;BME280;57745;42.524;12.052;2023-06-10T09:23:37;96217.72;;;24.53;57.64
58367;BME280;57745;42.524;12.052;2023-06-10T09:26:02;96218.38;;;24.22;58.55
58367;BME280;57745;42.524;12.052;2023-06-10T09:28:30;96212.78;;;24.46;57.75
58367;BME280;57745;42.524;12.052;2023-06-10T09:31:03;96214.41;;;24.36;57.91
58367;BME280;57745;42.524;12.052;2023-06-10T09:33:29;96211.72;;;24.30;58.08
58367;BME280;57745;42.524;12.052;2023-06-10T09:35:55;96208.72;;;24.28;58.37
58367;BME280;57745;42.524;12.052;2023-06-10T09:38:22;96215.66;;;24.16;58.72
58367;BME280;57745;42.524;12.052;2023-06-10T09:40:51;96211.44;;;24.34;57.94
58367;BME280;57745;42.524;12.052;2023-06-10T09:43:18;96212.03;;;24.27;58.53
58367;BME280;57745;42.524;12.052;2023-06-10T09:45:44;96211.84;;;24.19;58.84
58367;BME280;57745;42.524;12.052;2023-06-10T09:48:09;96210.91;;;24.11;58.91
58367;BME280;57745;42.524;12.052;2023-06-10T09:50:42;96205.22;;;24.28;58.55
58367;BME280;57745;42.524;12.052;2023-06-10T09:53:08;96205.38;;;24.36;58.35
58367;BME280;57745;42.524;12.052;2023-06-10T09:55:37;96208.88;;;24.36;58.50
58367;BME280;57745;42.524;12.052;2023-06-10T09:58:03;96208.88;;;24.36;58.99
58367;BME280;57745;42.524;12.052;2023-06-10T10:00:32;96200.34;;;24.34;59.46
58367;BME280;57745;42.524;12.052;2023-06-10T10:02:58;96205.22;;;24.28;59.88
58367;BME280;57745;42.524;12.052;2023-06-10T10:05:23;96207.28;;;24.22;60.10
58367;BME280;57745;42.524;12.052;2023-06-10T10:07:49;96206.84;;;24.37;59.75
58367;BME280;57745;42.524;12.052;2023-06-10T10:10:17;96207.00;;;24.25;59.98
58367;BME280;57745;42.524;12.052;2023-06-10T10:12:43;96202.56;;;24.17;60.11
58367;BME280;57745;42.524;12.052;2023-06-10T10:15:11;96207.09;;;24.39;59.73
58367;BME280;57745;42.524;12.052;2023-06-10T10:17:40;96198.97;;;24.22;59.91
58367;BME280;57745;42.524;12.052;2023-06-10T10:20:08;96191.69;;;24.19;60.05
58367;BME280;57745;42.524;12.052;2023-06-10T10:22:41;96196.91;;;24.28;59.45
58367;BME280;57745;42.524;12.052;2023-06-10T10:25:11;96189.56;;;24.30;59.37
58367;BME280;57745;42.524;12.052;2023-06-10T10:27:48;96193.75;;;24.37;59.10
58367;BME280;57745;42.524;12.052;2023-06-10T10:30:14;96191.34;;;24.28;59.23
58367;BME280;57745;42.524;12.052;2023-06-10T10:35:10;96181.63;;;24.40;58.81
58367;BME280;57745;42.524;12.052;2023-06-10T10:37:38;96184.25;;;24.32;59.29
58367;BME280;57745;42.524;12.052;2023-06-10T10:40:05;96182.13;;;24.20;59.71
58367;BME280;57745;42.524;12.052;2023-06-10T10:42:32;96173.69;;;24.31;59.44
58367;BME280;57745;42.524;12.052;2023-06-10T10:44:58;96173.69;;;24.31;59.10
58367;BME280;57745;42.524;12.052;2023-06-10T10:47:27;96171.75;;;24.45;58.95
58367;BME280;57745;42.524;12.052;2023-06-10T10:49:56;96168.97;;;24.45;58.42
58367;BME280;57745;42.524;12.052;2023-06-10T10:52:26;96170.06;;;24.36;58.66
58367;BME280;57745;42.524;12.052;2023-06-10T10:54:53;96169.88;;;24.34;58.89
58367;BME280;57745;42.524;12.052;2023-06-10T10:57:23;96160.72;;;24.39;58.81
58367;BME280;57745;42.524;12.052;2023-06-10T11:02:18;96145.81;;;24.42;58.61
58367;BME280;57745;42.524;12.052;2023-06-10T11:04:48;96150.16;;;24.38;58.58
58367;BME280;57745;42.524;12.052;2023-06-10T11:07:13;96142.34;;;24.36;58.52
58367;BME280;57745;42.524;12.052;2023-06-10T11:10:12;96147.25;;;24.30;58.40
58367;BME280;57745;42.524;12.052;2023-06-10T11:12:53;96143.19;;;24.31;57.86
58367;BME280;57745;42.524;12.052;2023-06-10T11:15:24;96136.69;;;24.47;57.61
58367;BME280;57745;42.524;12.052;2023-06-10T11:18:09;96136.00;;;24.41;57.21
58367;BME280;57745;42.524;12.052;2023-06-10T11:20:45;96130.69;;;24.43;57.40
58367;BME280;57745;42.524;12.052;2023-06-10T11:29:04;96134.88;;;24.31;56.60
58367;BME280;57745;42.524;12.052;2023-06-10T11:34:03;96131.78;;;24.53;56.55
58367;BME280;57745;42.524;12.052;2023-06-10T11:36:31;96124.53;;;24.50;56.74
58367;BME280;57745;42.524;12.052;2023-06-10T11:39:01;96136.94;;;24.62;56.64
58367;BME280;57745;42.524;12.052;2023-06-10T11:41:28;96123.94;;;24.57;56.97
58367;BME280;57745;42.524;12.052;2023-06-10T11:43:54;96130.50;;;24.54;56.98
58367;BME280;57745;42.524;12.052;2023-06-10T11:46:24;96133.06;;;24.52;57.40
58367;BME280;57745;42.524;12.052;2023-06-10T11:48:54;96128.72;;;24.38;58.04
58367;BME280;57745;42.524;12.052;2023-06-10T11:51:20;96121.38;;;24.41;58.55
58367;BME280;57745;42.524;12.052;2023-06-10T11:53:49;96135.94;;;24.47;59.05
58367;BME280;57745;42.524;12.052;2023-06-10T11:56:28;96140.66;;;24.33;59.53
58367;BME280;57745;42.524;12.052;2023-06-10T11:58:59;96152.63;;;24.41;59.83
58367;BME280;57745;42.524;12.052;2023-06-10T12:01:29;96150.22;;;24.51;59.75
58367;BME280;57745;42.524;12.052;2023-06-10T12:09:29;96139.44;;;24.28;62.58
58367;BME280;57745;42.524;12.052;2023-06-10T12:11:58;96133.97;;;24.42;63.69
58367;BME280;57745;42.524;12.052;2023-06-10T12:19:58;96115.56;;;24.44;63.49
58367;BME280;57745;42.524;12.052;2023-06-10T12:22:23;96103.84;;;24.51;63.70
58367;BME280;57745;42.524;12.052;2023-06-10T12:25:02;96101.97;;;24.59;63.74
58367;BME280;57745;42.524;12.052;2023-06-10T12:27:32;96092.84;;;24.46;64.32
58367;BME280;57745;42.524;12.052;2023-06-10T12:30:01;96099.03;;;24.70;63.10
58367;BME280;57745;42.524;12.052;2023-06-10T12:32:45;96088.72;;;24.52;64.78
58367;BME280;57745;42.524;12.052;2023-06-10T12:35:18;96088.44;;;24.37;65.50
58367;BME280;57745;42.524;12.052;2023-06-10T12:38:01;96088.13;;;24.41;64.93
58367;BME280;57745;42.524;12.052;2023-06-10T12:40:30;96094.56;;;24.49;64.52
58367;BME280;57745;42.524;12.052;2023-06-10T12:42:56;96083.88;;;24.72;63.13
58367;BME280;57745;42.524;12.052;2023-06-10T12:45:30;96089.06;;;24.62;63.64
58367;BME280;57745;42.524;12.052;2023-06-10T12:50:40;96091.53;;;24.65;62.90
58367;BME280;57745;42.524;12.052;2023-06-10T12:53:10;96084.47;;;24.64;62.65
58367;BME280;57745;42.524;12.052;2023-06-10T12:55:39;96075.06;;;24.54;62.52
58367;BME280;57745;42.524;12.052;2023-06-10T12:58:05;96072.19;;;24.47;62.61
58367;BME280;57745;42.524;12.052;2023-06-10T13:00:31;96066.69;;;24.60;61.70
58367;BME280;57745;42.524;12.052;2023-06-10T13:02:57;96064.22;;;24.56;61.84
58367;BME280;57745;42.524;12.052;2023-06-10T13:05:23;96056.44;;;24.68;61.27
58367;BME280;57745;42.524;12.052;2023-06-10T13:07:49;96062.53;;;24.66;60.99
58367;BME280;57745;42.524;12.052;2023-06-10T13:10:15;96060.13;;;24.44;61.33
58367;BME280;57745;42.524;12.052;2023-06-10T13:12:42;96057.38;;;24.57;60.39
58367;BME280;57745;42.524;12.052;2023-06-10T13:15:08;96049.03;;;24.44;60.39
58367;BME280;57745;42.524;12.052;2023-06-10T13:17:33;96053.47;;;24.66;60.11
58367;BME280;57745;42.524;12.052;2023-06-10T13:19:59;96052.59;;;24.58;59.95